UPS223 KMIA-TJSJ
Flight info
| Callsign | UPS223 |
|---|---|
| Flight time | N/A |
| Altitude | 35000 |
| Route | KLADA2 BITAC Y290 BEANO BEANO3 |
| Aircraft | B752/M-SDE2E3FGHIJ3J4J7RWXY/LB1 |
Departure
| Time | 2026-05-04 02:12 |
|---|---|
| Airport | Miami International Airport (KMIA) |
Arrival
| Time | N/A |
|---|---|
| Airport | Luis Munoz Marin International Airport (TJSJ) |
| Time | Latitude | Longitude | Altitude | Speed | Heading |
|---|---|---|---|---|---|
| 2026-05-04 01:51 | 25.79223 | -80.29370 | 14 ft | 0 kts | 210° |
| 2026-05-04 01:59 | 25.79226 | -80.29369 | 14 ft | 2 kts | 211° |
| 2026-05-04 01:59 | 25.79237 | -80.29358 | 14 ft | 2 kts | 229° |
| 2026-05-04 01:59 | 25.79244 | -80.29349 | 14 ft | 2 kts | 238° |
| 2026-05-04 02:00 | 25.79248 | -80.29339 | 14 ft | 2 kts | 248° |
| 2026-05-04 02:00 | 25.79252 | -80.29324 | 14 ft | 2 kts | 262° |
| 2026-05-04 02:01 | 25.79253 | -80.29310 | 14 ft | 1 kts | 275° |
| 2026-05-04 02:01 | 25.79251 | -80.29298 | 14 ft | 2 kts | 285° |
| 2026-05-04 02:01 | 25.79246 | -80.29284 | 15 ft | 1 kts | 298° |
| 2026-05-04 02:01 | 25.79245 | -80.29282 | 15 ft | 0 kts | 301° |
| 2026-05-04 02:05 | 25.79253 | -80.29298 | 14 ft | 8 kts | 300° |
| 2026-05-04 02:05 | 25.79290 | -80.29370 | 14 ft | 12 kts | 299° |
| 2026-05-04 02:05 | 25.79344 | -80.29444 | 14 ft | 12 kts | 335° |
| 2026-05-04 02:06 | 25.79420 | -80.29466 | 14 ft | 11 kts | 358° |
| 2026-05-04 02:06 | 25.79501 | -80.29461 | 14 ft | 12 kts | 4° |
| 2026-05-04 02:06 | 25.79578 | -80.29459 | 14 ft | 12 kts | 357° |
| 2026-05-04 02:06 | 25.79659 | -80.29488 | 14 ft | 11 kts | 323° |
| 2026-05-04 02:07 | 25.79712 | -80.29556 | 14 ft | 12 kts | 301° |
| 2026-05-04 02:07 | 25.79755 | -80.29637 | 14 ft | 12 kts | 300° |
| 2026-05-04 02:07 | 25.79798 | -80.29723 | 14 ft | 13 kts | 299° |
| 2026-05-04 02:07 | 25.79846 | -80.29820 | 14 ft | 14 kts | 300° |
| 2026-05-04 02:08 | 25.79900 | -80.29923 | 14 ft | 15 kts | 300° |
| 2026-05-04 02:08 | 25.79957 | -80.30031 | 14 ft | 16 kts | 301° |
| 2026-05-04 02:08 | 25.79980 | -80.30072 | 14 ft | 3 kts | 301° |
| 2026-05-04 02:08 | 25.79984 | -80.30079 | 14 ft | 0 kts | 301° |
| 2026-05-04 02:10 | 25.79988 | -80.30087 | 14 ft | 3 kts | 311° |
| 2026-05-04 02:10 | 25.80016 | -80.30105 | 14 ft | 5 kts | 345° |
| 2026-05-04 02:11 | 25.80059 | -80.30095 | 14 ft | 6 kts | 39° |
| 2026-05-04 02:11 | 25.80073 | -80.30043 | 14 ft | 14 kts | 85° |
| 2026-05-04 02:11 | 25.80096 | -80.29592 | 14 ft | 111 kts | 86° |
| 2026-05-04 02:11 | 25.80146 | -80.28418 | 164 ft | 192 kts | 88° |
| 2026-05-04 02:12 | 25.80140 | -80.26758 | 860 ft | 247 kts | 96° |
| 2026-05-04 02:12 | 25.79426 | -80.24787 | 1504 ft | 295 kts | 127° |
| 2026-05-04 02:12 | 25.78188 | -80.23119 | 2932 ft | 280 kts | 125° |
| 2026-05-04 02:12 | 25.77198 | -80.21356 | 4030 ft | 277 kts | 120° |
| 2026-05-04 02:13 | 25.76292 | -80.19454 | 4875 ft | 285 kts | 117° |
| 2026-05-04 02:13 | 25.75445 | -80.17468 | 5807 ft | 289 kts | 116° |
| 2026-05-04 02:13 | 25.74627 | -80.15428 | 6702 ft | 295 kts | 115° |
| 2026-05-04 02:13 | 25.73828 | -80.13359 | 7610 ft | 299 kts | 115° |
| 2026-05-04 02:14 | 25.73034 | -80.11259 | 8437 ft | 305 kts | 115° |
| 2026-05-04 02:14 | 25.72222 | -80.09085 | 9340 ft | 309 kts | 115° |
| 2026-05-04 02:14 | 25.71402 | -80.06877 | 10182 ft | 314 kts | 115° |
| 2026-05-04 02:14 | 25.70555 | -80.04592 | 10793 ft | 329 kts | 115° |
| 2026-05-04 02:15 | 25.69662 | -80.02181 | 11182 ft | 351 kts | 115° |
| 2026-05-04 02:15 | 25.68718 | -79.99626 | 11666 ft | 368 kts | 115° |
| 2026-05-04 02:15 | 25.67743 | -79.96985 | 12480 ft | 373 kts | 115° |
| 2026-05-04 02:15 | 25.66770 | -79.94347 | 13312 ft | 376 kts | 115° |
| 2026-05-04 02:16 | 25.65757 | -79.91609 | 14018 ft | 383 kts | 115° |
| 2026-05-04 02:16 | 25.64745 | -79.88875 | 14688 ft | 390 kts | 115° |
| 2026-05-04 02:16 | 25.63716 | -79.86095 | 15409 ft | 394 kts | 115° |
| 2026-05-04 02:16 | 25.62663 | -79.83253 | 16054 ft | 400 kts | 115° |
| 2026-05-04 02:17 | 25.61608 | -79.80409 | 16722 ft | 405 kts | 115° |
| 2026-05-04 02:17 | 25.60540 | -79.77530 | 17346 ft | 411 kts | 115° |
| 2026-05-04 02:17 | 25.59444 | -79.74578 | 17987 ft | 416 kts | 115° |
| 2026-05-04 02:17 | 25.58331 | -79.71581 | 18707 ft | 419 kts | 115° |
| 2026-05-04 02:18 | 25.57223 | -79.68600 | 19319 ft | 424 kts | 116° |
| 2026-05-04 02:18 | 25.56099 | -79.65583 | 19899 ft | 430 kts | 116° |
| 2026-05-04 02:18 | 25.54967 | -79.62538 | 20549 ft | 433 kts | 116° |
| 2026-05-04 02:18 | 25.53809 | -79.59436 | 21125 ft | 437 kts | 116° |
| 2026-05-04 02:19 | 25.52655 | -79.56340 | 21681 ft | 442 kts | 116° |
| 2026-05-04 02:19 | 25.51467 | -79.53157 | 22298 ft | 444 kts | 116° |
| 2026-05-04 02:19 | 25.50289 | -79.50004 | 22797 ft | 450 kts | 116° |
| 2026-05-04 02:19 | 25.49088 | -79.46791 | 23354 ft | 454 kts | 116° |
| 2026-05-04 02:20 | 25.47872 | -79.43541 | 23867 ft | 459 kts | 116° |
| 2026-05-04 02:20 | 25.46645 | -79.40262 | 24498 ft | 461 kts | 117° |
| 2026-05-04 02:20 | 25.45414 | -79.36978 | 25033 ft | 466 kts | 116° |
| 2026-05-04 02:20 | 25.44164 | -79.33646 | 25539 ft | 470 kts | 117° |
| 2026-05-04 02:21 | 25.42923 | -79.30337 | 26105 ft | 471 kts | 117° |
| 2026-05-04 02:21 | 25.41656 | -79.26965 | 26505 ft | 477 kts | 117° |
| 2026-05-04 02:21 | 25.40389 | -79.23594 | 27010 ft | 478 kts | 117° |
| 2026-05-04 02:21 | 25.39094 | -79.20153 | 27487 ft | 481 kts | 117° |
| 2026-05-04 02:22 | 25.37815 | -79.16757 | 27875 ft | 484 kts | 117° |
| 2026-05-04 02:22 | 25.36504 | -79.13277 | 28158 ft | 491 kts | 117° |
| 2026-05-04 02:22 | 25.35183 | -79.09776 | 28679 ft | 490 kts | 118° |
| 2026-05-04 02:22 | 25.33882 | -79.06329 | 28996 ft | 494 kts | 118° |
| 2026-05-04 02:23 | 25.32555 | -79.02816 | 29403 ft | 496 kts | 117° |
| 2026-05-04 02:23 | 25.31211 | -78.99264 | 29765 ft | 499 kts | 117° |
| 2026-05-04 02:23 | 25.29878 | -78.95744 | 30059 ft | 503 kts | 117° |
| 2026-05-04 02:23 | 25.28529 | -78.92181 | 30473 ft | 504 kts | 117° |
| 2026-05-04 02:24 | 25.27179 | -78.88615 | 31021 ft | 500 kts | 118° |
| 2026-05-04 02:24 | 25.25837 | -78.85077 | 31329 ft | 503 kts | 117° |
| 2026-05-04 02:24 | 25.24478 | -78.81499 | 31794 ft | 502 kts | 117° |
| 2026-05-04 02:24 | 25.23134 | -78.77959 | 32226 ft | 501 kts | 117° |
| 2026-05-04 02:25 | 25.21786 | -78.74415 | 32588 ft | 502 kts | 117° |
| 2026-05-04 02:25 | 25.20433 | -78.70864 | 32940 ft | 502 kts | 118° |
| 2026-05-04 02:25 | 25.19082 | -78.67315 | 33463 ft | 500 kts | 117° |
| 2026-05-04 02:25 | 25.17746 | -78.63814 | 33907 ft | 501 kts | 117° |
| 2026-05-04 02:26 | 25.16385 | -78.60246 | 34390 ft | 500 kts | 117° |
| 2026-05-04 02:26 | 25.15041 | -78.56727 | 34921 ft | 498 kts | 117° |
| 2026-05-04 02:26 | 25.12343 | -78.49675 | 34994 ft | 499 kts | 117° |
| 2026-05-04 02:27 | 25.09655 | -78.42654 | 34995 ft | 497 kts | 117° |
| 2026-05-04 02:27 | 25.06966 | -78.35650 | 34998 ft | 498 kts | 117° |
| 2026-05-04 02:28 | 25.04264 | -78.28619 | 34983 ft | 498 kts | 118° |
| 2026-05-04 02:28 | 25.01553 | -78.21578 | 34984 ft | 500 kts | 118° |
| 2026-05-04 02:29 | 24.98831 | -78.14519 | 34982 ft | 498 kts | 117° |
| 2026-05-04 02:29 | 24.96132 | -78.07532 | 34985 ft | 498 kts | 117° |
| 2026-05-04 02:30 | 24.93404 | -78.00481 | 34987 ft | 498 kts | 117° |
| 2026-05-04 02:30 | 24.90684 | -77.93464 | 34985 ft | 498 kts | 117° |
| 2026-05-04 02:31 | 24.87977 | -77.86491 | 34990 ft | 498 kts | 117° |
| 2026-05-04 02:31 | 24.85249 | -77.79473 | 34995 ft | 498 kts | 117° |
| 2026-05-04 02:32 | 24.82523 | -77.72473 | 34995 ft | 498 kts | 117° |
| 2026-05-04 02:32 | 24.79785 | -77.65454 | 34996 ft | 498 kts | 117° |
| 2026-05-04 02:33 | 24.77044 | -77.58441 | 34996 ft | 498 kts | 117° |
| 2026-05-04 02:33 | 24.74230 | -77.51537 | 35005 ft | 494 kts | 121° |
| 2026-05-04 02:34 | 24.71117 | -77.44772 | 34996 ft | 494 kts | 121° |
| 2026-05-04 02:34 | 24.68032 | -77.38032 | 34999 ft | 494 kts | 120° |
| 2026-05-04 02:35 | 24.64956 | -77.31312 | 34995 ft | 494 kts | 121° |
| 2026-05-04 02:35 | 24.61873 | -77.24586 | 34989 ft | 492 kts | 121° |
| 2026-05-04 02:36 | 24.58806 | -77.17901 | 34994 ft | 492 kts | 121° |
| 2026-05-04 02:36 | 24.55703 | -77.11148 | 34995 ft | 492 kts | 121° |
| 2026-05-04 02:37 | 24.52625 | -77.04462 | 34999 ft | 491 kts | 121° |
| 2026-05-04 02:37 | 24.49568 | -76.97828 | 34998 ft | 492 kts | 121° |
| 2026-05-04 02:38 | 24.46491 | -76.91163 | 35001 ft | 492 kts | 121° |
| 2026-05-04 02:38 | 24.43399 | -76.84471 | 35000 ft | 491 kts | 121° |
| 2026-05-04 02:39 | 24.40298 | -76.77772 | 35002 ft | 492 kts | 121° |
| 2026-05-04 02:39 | 24.37201 | -76.71091 | 35003 ft | 492 kts | 121° |
| 2026-05-04 02:40 | 24.34106 | -76.64424 | 35002 ft | 490 kts | 121° |
| 2026-05-04 02:40 | 24.31003 | -76.57749 | 35006 ft | 490 kts | 121° |
| 2026-05-04 02:41 | 24.27909 | -76.51105 | 35007 ft | 492 kts | 121° |
| 2026-05-04 02:41 | 24.24813 | -76.44464 | 35008 ft | 491 kts | 120° |
| 2026-05-04 02:42 | 24.21685 | -76.37764 | 35009 ft | 492 kts | 120° |
| 2026-05-04 02:42 | 24.18574 | -76.31107 | 34997 ft | 490 kts | 121° |
| 2026-05-04 02:43 | 24.15462 | -76.24465 | 35000 ft | 491 kts | 121° |
| 2026-05-04 02:43 | 24.12358 | -76.17842 | 35004 ft | 490 kts | 121° |
| 2026-05-04 02:44 | 24.09246 | -76.11213 | 35005 ft | 489 kts | 121° |
| 2026-05-04 02:44 | 24.06124 | -76.04574 | 35007 ft | 490 kts | 121° |
| 2026-05-04 02:45 | 24.02998 | -75.97937 | 35009 ft | 490 kts | 121° |
| 2026-05-04 02:45 | 23.99883 | -75.91328 | 35004 ft | 490 kts | 121° |
| 2026-05-04 02:46 | 23.96751 | -75.84693 | 35008 ft | 489 kts | 121° |
| 2026-05-04 02:46 | 23.93627 | -75.78086 | 35006 ft | 489 kts | 121° |
| 2026-05-04 02:47 | 23.90519 | -75.71523 | 35013 ft | 490 kts | 121° |
| 2026-05-04 02:47 | 23.87391 | -75.64925 | 35024 ft | 489 kts | 121° |
| 2026-05-04 02:48 | 23.84234 | -75.58276 | 35032 ft | 489 kts | 121° |
| 2026-05-04 02:48 | 23.81119 | -75.51723 | 35025 ft | 489 kts | 121° |
| 2026-05-04 02:49 | 23.77996 | -75.45165 | 35033 ft | 489 kts | 121° |
| 2026-05-04 02:49 | 23.74875 | -75.38618 | 35031 ft | 489 kts | 121° |
| 2026-05-04 02:50 | 23.71733 | -75.32036 | 35020 ft | 489 kts | 121° |
| 2026-05-04 02:50 | 23.68637 | -75.25559 | 35019 ft | 488 kts | 121° |
| 2026-05-04 02:51 | 23.65467 | -75.18938 | 35020 ft | 490 kts | 121° |
| 2026-05-04 02:51 | 23.62318 | -75.12366 | 35023 ft | 488 kts | 121° |
| 2026-05-04 02:52 | 23.59166 | -75.05801 | 35026 ft | 489 kts | 121° |
| 2026-05-04 02:52 | 23.56013 | -74.99242 | 35026 ft | 488 kts | 121° |
| 2026-05-04 02:53 | 23.52864 | -74.92698 | 35029 ft | 488 kts | 121° |
| 2026-05-04 02:53 | 23.49707 | -74.86149 | 35029 ft | 489 kts | 121° |
| 2026-05-04 02:54 | 23.46568 | -74.79642 | 35032 ft | 489 kts | 121° |
| 2026-05-04 02:54 | 23.43472 | -74.73237 | 35031 ft | 489 kts | 121° |
| 2026-05-04 02:55 | 23.38713 | -74.63404 | 35034 ft | 489 kts | 121° |
| 2026-05-04 02:56 | 23.35577 | -74.56936 | 35032 ft | 488 kts | 121° |
| 2026-05-04 02:56 | 23.32450 | -74.50494 | 35036 ft | 488 kts | 121° |
| 2026-05-04 02:57 | 23.29312 | -74.44041 | 35039 ft | 489 kts | 121° |
| 2026-05-04 02:57 | 23.26158 | -74.37560 | 35033 ft | 489 kts | 121° |
| 2026-05-04 02:58 | 23.23010 | -74.31101 | 35021 ft | 488 kts | 121° |
| 2026-05-04 02:58 | 23.19865 | -74.24657 | 35025 ft | 488 kts | 121° |
| 2026-05-04 02:59 | 23.16710 | -74.18202 | 35024 ft | 487 kts | 121° |
| 2026-05-04 02:59 | 23.13533 | -74.11710 | 35026 ft | 490 kts | 121° |
| 2026-05-04 03:00 | 23.10349 | -74.05209 | 35026 ft | 487 kts | 121° |
| 2026-05-04 03:00 | 23.07203 | -73.98796 | 35028 ft | 488 kts | 121° |
| 2026-05-04 03:01 | 23.04027 | -73.92333 | 35027 ft | 489 kts | 121° |
| 2026-05-04 03:01 | 23.00932 | -73.86039 | 35027 ft | 487 kts | 121° |
| 2026-05-04 03:02 | 22.97746 | -73.79569 | 35029 ft | 488 kts | 121° |
| 2026-05-04 03:02 | 22.94570 | -73.73128 | 35030 ft | 487 kts | 121° |
| 2026-05-04 03:03 | 22.91369 | -73.66646 | 35030 ft | 488 kts | 121° |
| 2026-05-04 03:03 | 22.88178 | -73.60191 | 35033 ft | 488 kts | 121° |
| 2026-05-04 03:04 | 22.84984 | -73.53741 | 35031 ft | 487 kts | 121° |
| 2026-05-04 03:04 | 22.81844 | -73.47404 | 35032 ft | 486 kts | 121° |
| 2026-05-04 03:05 | 22.78763 | -73.41198 | 35029 ft | 486 kts | 121° |
| 2026-05-04 03:05 | 22.75580 | -73.34793 | 35030 ft | 488 kts | 121° |
| 2026-05-04 03:06 | 22.72421 | -73.28442 | 35017 ft | 486 kts | 121° |
| 2026-05-04 03:06 | 22.69292 | -73.22161 | 35018 ft | 486 kts | 121° |
| 2026-05-04 03:07 | 22.66136 | -73.15833 | 35018 ft | 487 kts | 121° |
| 2026-05-04 03:07 | 22.63023 | -73.09598 | 35018 ft | 485 kts | 121° |
| 2026-05-04 03:08 | 22.59885 | -73.03324 | 35018 ft | 486 kts | 120° |
| 2026-05-04 03:08 | 22.56839 | -72.97240 | 35020 ft | 485 kts | 121° |
| 2026-05-04 03:09 | 22.53613 | -72.90803 | 35023 ft | 484 kts | 120° |
| 2026-05-04 03:09 | 22.50398 | -72.84396 | 35019 ft | 485 kts | 120° |
| 2026-05-04 03:10 | 22.47188 | -72.78010 | 35023 ft | 484 kts | 120° |
| 2026-05-04 03:10 | 22.43972 | -72.71619 | 35023 ft | 485 kts | 120° |
| 2026-05-04 03:11 | 22.40751 | -72.65222 | 35024 ft | 484 kts | 120° |
| 2026-05-04 03:11 | 22.37529 | -72.58836 | 35025 ft | 484 kts | 120° |
| 2026-05-04 03:12 | 22.34342 | -72.52524 | 35027 ft | 484 kts | 120° |